Time;durP1;ratioP1;P1;durP2;ratioP2;P2;SDS_P1;SDS_P2;PMS_P1;PMS_P2;Temp;Humidity;BMP_temperature;BMP_pressure;BME280_temperature;BME280_humidity;BME280_pressure;Samples;Min_cycle;Max_cycle;Signal;HPM_P1;HPM_P2
2023/12/04 00:01:47;;;;;;;19.25;7.47;;;0.50;99.90;;;;;;4998371;28;20023;-63
2023/12/04 00:04:13;;;;;;;22.48;8.68;;;0.50;99.90;;;;;;4980896;28;20030;-63
2023/12/04 00:06:38;;;;;;;23.17;8.32;;;0.30;99.90;;;;;;4980869;28;20030;-69
2023/12/04 00:09:04;;;;;;;19.58;7.93;;;0.30;99.90;;;;;;4998132;28;20081;-69
2023/12/04 00:11:30;;;;;;;22.55;8.02;;;0.20;99.90;;;;;;4997940;28;20058;-69
2023/12/04 00:13:55;;;;;;;20.83;8.02;;;0.40;99.90;;;;;;4997881;28;20034;-69
2023/12/04 00:16:21;;;;;;;18.90;7.85;;;0.20;99.90;;;;;;4997723;28;20046;-69
2023/12/04 00:18:46;;;;;;;23.85;8.25;;;0.10;99.90;;;;;;4997790;28;20034;-69
2023/12/04 00:21:13;;;;;;;21.63;8.18;;;0.20;99.90;;;;;;4980761;28;20019;-68
2023/12/04 00:23:38;;;;;;;17.50;7.43;;;0.20;99.90;;;;;;4997669;28;20031;-69
2023/12/04 00:26:04;;;;;;;21.13;8.43;;;0.20;99.90;;;;;;4997546;28;20048;-69
2023/12/04 00:28:30;;;;;;;20.55;7.47;;;0.40;99.90;;;;;;4980494;28;20050;-69
2023/12/04 00:30:55;;;;;;;17.20;7.22;;;0.50;99.90;;;;;;4980977;28;20014;-69
2023/12/04 00:33:21;;;;;;;16.98;7.82;;;0.60;99.90;;;;;;4980525;28;20034;-69
2023/12/04 00:35:46;;;;;;;20.27;7.35;;;0.60;99.90;;;;;;4997507;28;20034;-69
2023/12/04 00:38:12;;;;;;;20.17;7.43;;;0.60;99.90;;;;;;4980727;28;20036;-69
2023/12/04 00:40:37;;;;;;;14.63;6.60;;;0.50;99.90;;;;;;4980470;28;20022;-69
2023/12/04 00:43:03;;;;;;;17.13;7.15;;;0.50;99.90;;;;;;4980437;28;20026;-69
2023/12/04 00:45:28;;;;;;;14.27;7.63;;;0.60;99.90;;;;;;4997321;28;20082;-69
2023/12/04 00:47:54;;;;;;;18.45;7.38;;;0.70;99.90;;;;;;4997471;28;20022;-69
2023/12/04 00:50:19;;;;;;;26.00;8.10;;;0.80;99.90;;;;;;4997325;28;20026;-69
2023/12/04 00:52:45;;;;;;;18.38;7.15;;;0.70;99.90;;;;;;4997532;28;20034;-69
2023/12/04 00:55:11;;;;;;;18.15;7.28;;;0.60;99.90;;;;;;4997269;28;20031;-64
2023/12/04 00:57:36;;;;;;;16.48;7.68;;;0.50;99.90;;;;;;4997373;28;20077;-64
2023/12/04 01:00:03;;;;;;;20.73;7.65;;;0.60;99.90;;;;;;4980239;28;20026;-63
2023/12/04 01:02:29;;;;;;;23.23;7.72;;;0.60;99.90;;;;;;4980130;28;20026;-64
2023/12/04 01:04:54;;;;;;;16.85;7.43;;;0.50;99.90;;;;;;4980336;28;20050;-64
2023/12/04 01:07:20;;;;;;;17.83;7.95;;;0.60;99.90;;;;;;4981047;28;20018;-63
2023/12/04 01:09:45;;;;;;;14.93;7.25;;;0.30;99.90;;;;;;4997784;28;20046;-64
2023/12/04 01:12:11;;;;;;;18.30;7.40;;;0.40;99.90;;;;;;4979988;28;20018;-63
2023/12/04 01:14:38;;;;;;;17.75;7.55;;;0.50;99.90;;;;;;4980220;28;20049;-63
2023/12/04 01:17:04;;;;;;;20.67;7.43;;;0.40;99.90;;;;;;4980055;28;20113;-64
2023/12/04 01:19:29;;;;;;;17.52;7.57;;;0.40;99.90;;;;;;4979966;28;20062;-64
2023/12/04 01:21:55;;;;;;;18.50;7.10;;;0.40;99.90;;;;;;4980061;28;20018;-63
2023/12/04 01:24:21;;;;;;;20.33;7.10;;;0.30;99.90;;;;;;4980120;28;20042;-64
2023/12/04 01:26:46;;;;;;;17.42;6.97;;;0.30;99.90;;;;;;4980209;28;20029;-63
2023/12/04 01:29:12;;;;;;;17.00;6.75;;;0.40;99.90;;;;;;4980780;28;20022;-64
2023/12/04 01:31:38;;;;;;;20.45;9.10;;;0.30;99.90;;;;;;4980392;28;20026;-64
2023/12/04 01:34:03;;;;;;;17.45;7.75;;;0.40;99.90;;;;;;4980801;28;20101;-63
2023/12/04 01:36:29;;;;;;;25.17;9.40;;;0.30;99.90;;;;;;4980116;28;20041;-63
2023/12/04 01:38:54;;;;;;;20.90;7.85;;;0.20;99.90;;;;;;4980485;28;20065;-64
2023/12/04 01:41:20;;;;;;;18.25;7.00;;;0.20;99.90;;;;;;4979885;28;20022;-63
2023/12/04 01:43:46;;;;;;;19.10;7.50;;;0.30;99.90;;;;;;4981626;28;20030;-64
2023/12/04 01:46:15;;;;;;;16.38;7.40;;;0.20;99.90;;;;;;4983236;28;20089;-63
2023/12/04 01:48:41;;;;;;;18.88;7.82;;;0.10;99.90;;;;;;4983540;28;20026;-64
2023/12/04 01:51:09;;;;;;;17.40;7.35;;;0.20;99.90;;;;;;4984052;28;20028;-64
2023/12/04 01:53:38;;;;;;;22.25;8.13;;;0.20;99.90;;;;;;4984162;28;20053;-64
2023/12/04 01:56:05;;;;;;;19.75;7.80;;;0.10;99.90;;;;;;4983472;28;20030;-64
2023/12/04 01:58:31;;;;;;;20.13;7.55;;;0.20;99.90;;;;;;4983234;28;20030;-64
2023/12/04 02:00:57;;;;;;;18.70;7.93;;;0.20;99.90;;;;;;4983066;28;20030;-64
2023/12/04 02:03:23;;;;;;;19.50;8.48;;;0.20;99.90;;;;;;4983528;28;20041;-64
2023/12/04 02:05:50;;;;;;;19.70;9.10;;;0.10;99.90;;;;;;4983265;28;20033;-64
2023/12/04 02:08:16;;;;;;;20.38;6.75;;;0.00;99.90;;;;;;4983313;28;20023;-63
2023/12/04 02:10:42;;;;;;;21.70;8.57;;;0.00;99.90;;;;;;4983346;28;20098;-63
2023/12/04 02:13:09;;;;;;;20.17;7.90;;;0.00;99.90;;;;;;4983614;28;20029;-63
2023/12/04 02:15:34;;;;;;;25.48;9.05;;;-0.20;99.90;;;;;;4983486;28;20121;-63
2023/12/04 02:18:02;;;;;;;25.45;8.38;;;-0.30;99.90;;;;;;4982865;28;20061;-64
2023/12/04 02:20:33;;;;;;;22.35;8.57;;;-0.40;99.90;;;;;;4983240;28;20085;-63
2023/12/04 02:22:59;;;;;;;15.70;7.05;;;-0.30;99.90;;;;;;4983489;28;20037;-64
2023/12/04 02:25:24;;;;;;;19.98;7.57;;;-0.30;99.90;;;;;;4982685;28;20030;-64
2023/12/04 02:27:51;;;;;;;24.73;9.13;;;-0.40;99.90;;;;;;4983614;28;20022;-64
2023/12/04 02:30:19;;;;;;;21.45;8.38;;;-0.20;99.90;;;;;;4982660;28;20026;-63
2023/12/04 02:32:47;;;;;;;23.65;8.25;;;-0.20;99.90;;;;;;4982437;28;20026;-63
2023/12/04 02:35:16;;;;;;;19.77;7.70;;;-0.30;99.90;;;;;;4982989;28;20027;-63
2023/12/04 02:37:42;;;;;;;22.02;8.07;;;-0.30;99.90;;;;;;4983299;28;20034;-63
2023/12/04 02:40:08;;;;;;;29.08;9.20;;;-0.50;99.90;;;;;;4999595;28;20034;-63
2023/12/04 02:42:34;;;;;;;23.80;9.15;;;-0.50;99.90;;;;;;4982424;28;20115;-63
2023/12/04 02:44:59;;;;;;;20.92;7.30;;;-0.50;99.90;;;;;;4999294;28;20062;-63
2023/12/04 02:47:25;;;;;;;23.73;8.90;;;-0.40;99.90;;;;;;4999504;28;20058;-63
2023/12/04 02:49:51;;;;;;;23.48;8.98;;;-0.50;99.90;;;;;;4982256;28;20022;-63
2023/12/04 02:52:16;;;;;;;21.90;8.70;;;-0.30;99.90;;;;;;4999361;28;20018;-64
2023/12/04 02:54:42;;;;;;;27.38;8.45;;;-0.20;99.90;;;;;;4998208;28;20050;-63
2023/12/04 02:57:07;;;;;;;21.83;8.30;;;-0.40;99.90;;;;;;4982913;28;20026;-64
2023/12/04 02:59:33;;;;;;;21.40;8.60;;;-0.40;99.90;;;;;;4982405;28;20026;-63
2023/12/04 03:01:58;;;;;;;20.58;9.15;;;-0.40;99.90;;;;;;4982149;28;20037;-63
2023/12/04 03:04:24;;;;;;;17.90;7.95;;;-0.40;99.90;;;;;;4999084;28;20066;-63
2023/12/04 03:06:50;;;;;;;22.38;8.82;;;-0.40;99.90;;;;;;4999409;28;20109;-63
2023/12/04 03:09:15;;;;;;;23.67;8.50;;;-0.30;99.90;;;;;;4981860;28;20018;-63
2023/12/04 03:11:41;;;;;;;19.60;8.57;;;-0.20;99.90;;;;;;4999002;28;20022;-63
2023/12/04 03:14:07;;;;;;;17.45;7.90;;;-0.40;99.90;;;;;;4999714;28;20026;-64
2023/12/04 03:16:33;;;;;;;22.70;9.38;;;-0.30;99.90;;;;;;4998851;28;20065;-65
2023/12/04 03:18:59;;;;;;;25.67;9.95;;;-0.60;99.90;;;;;;4981725;28;20116;-63
2023/12/04 03:21:24;;;;;;;18.33;8.27;;;-0.60;99.90;;;;;;4981948;28;20077;-63
2023/12/04 03:23:50;;;;;;;20.77;8.75;;;-0.60;99.90;;;;;;4982654;28;20033;-64
2023/12/04 03:26:16;;;;;;;17.88;7.93;;;-0.50;99.90;;;;;;4998731;28;20041;-63
2023/12/04 03:28:41;;;;;;;17.35;7.80;;;-0.40;99.90;;;;;;4998621;28;20026;-64
2023/12/04 03:31:07;;;;;;;25.65;9.73;;;-0.30;99.90;;;;;;4998866;28;20061;-63
2023/12/04 03:33:33;;;;;;;23.23;8.95;;;-0.30;99.90;;;;;;4998704;28;20031;-64
2023/12/04 03:36:01;;;;;;;25.73;9.30;;;-0.40;99.90;;;;;;4998308;28;20121;-63
2023/12/04 03:38:27;;;;;;;23.30;9.07;;;-0.50;99.90;;;;;;4981527;28;20130;-63
2023/12/04 03:40:52;;;;;;;24.00;8.70;;;-0.60;99.90;;;;;;4998463;28;20058;-63
2023/12/04 03:43:18;;;;;;;19.95;8.82;;;-0.80;99.90;;;;;;4998507;28;20065;-63
2023/12/04 03:45:44;;;;;;;22.48;9.52;;;-0.80;99.90;;;;;;4981104;28;20032;-64
2023/12/04 03:48:09;;;;;;;23.10;9.38;;;-0.80;99.90;;;;;;4981175;28;20029;-63
2023/12/04 03:50:35;;;;;;;23.67;9.43;;;-0.70;99.90;;;;;;4981340;28;20061;-63
2023/12/04 03:53:00;;;;;;;23.05;9.15;;;-0.70;99.90;;;;;;4998307;28;20030;-64
2023/12/04 03:55:26;;;;;;;22.95;8.90;;;-0.60;99.90;;;;;;4998344;28;20031;-64
2023/12/04 03:57:52;;;;;;;31.25;10.20;;;-0.60;99.90;;;;;;4981075;28;20026;-63
2023/12/04 04:00:18;;;;;;;21.65;9.15;;;-0.70;99.90;;;;;;4981855;28;20026;-63
2023/12/04 04:02:44;;;;;;;26.42;8.95;;;-0.70;99.90;;;;;;4980903;28;20022;-63
2023/12/04 04:05:09;;;;;;;25.92;9.48;;;-0.80;99.90;;;;;;4997875;28;20031;-63
2023/12/04 04:07:35;;;;;;;25.13;9.18;;;-0.90;99.90;;;;;;4981853;28;20027;-63
2023/12/04 04:10:02;;;;;;;22.17;9.02;;;-0.90;99.90;;;;;;4981028;28;20027;-63
2023/12/04 04:12:27;;;;;;;27.10;10.43;;;-1.00;99.90;;;;;;4980836;28;20053;-64
2023/12/04 04:14:53;;;;;;;21.25;8.73;;;-1.00;99.90;;;;;;4997838;28;20022;-64
2023/12/04 04:17:18;;;;;;;20.00;8.02;;;-1.10;99.90;;;;;;4997995;28;20030;-64
2023/12/04 04:19:44;;;;;;;21.88;7.90;;;-1.00;99.90;;;;;;4980949;28;20031;-63
2023/12/04 04:22:10;;;;;;;23.50;8.18;;;-1.00;99.90;;;;;;4981640;28;20064;-63
2023/12/04 04:24:35;;;;;;;22.10;9.27;;;-1.10;99.90;;;;;;4980656;28;20026;-63
2023/12/04 04:27:01;;;;;;;25.13;9.93;;;-1.00;99.90;;;;;;4997536;28;20038;-63
2023/12/04 04:29:26;;;;;;;26.38;9.95;;;-0.90;99.90;;;;;;4997672;28;20039;-63
2023/12/04 04:31:52;;;;;;;21.60;7.97;;;-0.70;99.90;;;;;;4980469;28;20018;-63
2023/12/04 04:34:19;;;;;;;21.40;8.40;;;-0.70;99.90;;;;;;4997579;28;20099;-63
2023/12/04 04:36:45;;;;;;;23.50;8.77;;;-0.70;99.90;;;;;;4998073;28;20127;-63
2023/12/04 04:39:13;;;;;;;22.83;8.70;;;-0.60;99.90;;;;;;4981139;28;20018;-63
2023/12/04 04:41:39;;;;;;;22.92;9.10;;;-0.60;99.90;;;;;;4997406;28;20027;-64
2023/12/04 04:44:05;;;;;;;21.27;8.70;;;-0.60;99.90;;;;;;4997490;28;20025;-63
2023/12/04 04:46:30;;;;;;;22.05;9.10;;;-0.70;99.90;;;;;;4997836;28;20030;-64
2023/12/04 04:48:56;;;;;;;25.70;9.10;;;-0.70;99.90;;;;;;4997701;28;20019;-64
2023/12/04 04:51:22;;;;;;;19.90;9.10;;;-0.70;99.90;;;;;;4997366;28;20026;-64
2023/12/04 04:53:48;;;;;;;21.88;9.63;;;-0.70;99.90;;;;;;4980222;28;20029;-64
2023/12/04 04:56:14;;;;;;;22.83;8.90;;;-0.70;99.90;;;;;;4997205;28;20026;-63
2023/12/04 04:58:39;;;;;;;19.60;8.93;;;-0.70;99.90;;;;;;4997319;28;20029;-64
2023/12/04 05:01:05;;;;;;;20.50;9.18;;;-0.60;99.90;;;;;;4997197;28;20037;-64
2023/12/04 05:03:30;;;;;;;25.63;9.45;;;-0.60;99.90;;;;;;4997521;28;20031;-63
2023/12/04 05:05:56;;;;;;;21.33;8.95;;;-0.60;99.90;;;;;;4997022;28;20023;-63
2023/12/04 05:08:22;;;;;;;22.52;9.07;;;-0.70;99.90;;;;;;4981051;28;20125;-64
2023/12/04 05:10:47;;;;;;;24.88;9.90;;;-0.70;99.90;;;;;;4980227;28;20041;-64
2023/12/04 05:13:13;;;;;;;23.50;10.00;;;-0.70;99.90;;;;;;4997124;28;20033;-63
2023/12/04 05:15:38;;;;;;;24.80;9.73;;;-0.60;99.90;;;;;;4980680;28;20029;-63
2023/12/04 05:18:04;;;;;;;26.55;9.60;;;-0.70;99.90;;;;;;4997932;28;20130;-63
2023/12/04 05:20:29;;;;;;;26.10;9.55;;;-0.60;99.90;;;;;;5001098;28;20034;-68
2023/12/04 05:22:59;;;;;;;22.30;9.27;;;-0.60;99.90;;;;;;4983956;28;20023;-69
2023/12/04 05:25:24;;;;;;;26.20;10.45;;;-0.60;99.90;;;;;;4983996;28;20037;-69
2023/12/04 05:27:50;;;;;;;22.05;9.88;;;-0.70;99.90;;;;;;5000967;28;20022;-69
2023/12/04 05:30:15;;;;;;;22.55;9.80;;;-0.60;99.90;;;;;;5000905;28;20050;-69
2023/12/04 05:32:41;;;;;;;25.23;9.75;;;-0.60;99.90;;;;;;4984013;28;20058;-69
2023/12/04 05:35:07;;;;;;;21.13;8.95;;;-0.80;99.90;;;;;;5000951;28;20057;-64
2023/12/04 05:37:32;;;;;;;24.08;9.63;;;-0.70;99.90;;;;;;5001280;28;20033;-64
2023/12/04 05:39:58;;;;;;;28.35;9.88;;;-0.70;99.90;;;;;;4983799;28;20053;-63
2023/12/04 05:42:23;;;;;;;23.27;9.43;;;-0.90;99.90;;;;;;4983845;28;20030;-64
2023/12/04 05:44:49;;;;;;;21.80;9.13;;;-0.90;99.90;;;;;;5000593;28;20018;-63
2023/12/04 05:47:14;;;;;;;27.20;9.65;;;-0.80;99.90;;;;;;5000602;28;20061;-64
2023/12/04 05:49:40;;;;;;;21.83;8.68;;;-0.80;99.90;;;;;;5000459;28;20109;-63
2023/12/04 05:52:06;;;;;;;24.00;9.27;;;-0.70;99.90;;;;;;5000491;28;20027;-63
2023/12/04 05:54:32;;;;;;;21.90;8.27;;;-0.70;99.90;;;;;;5000842;28;20061;-63
2023/12/04 05:56:58;;;;;;;24.27;9.45;;;-0.80;99.90;;;;;;5000579;28;20031;-63
2023/12/04 05:59:23;;;;;;;29.85;9.85;;;-0.80;99.90;;;;;;4983295;28;20026;-63
2023/12/04 06:01:49;;;;;;;25.98;9.77;;;-0.80;99.90;;;;;;5000668;28;20026;-63
2023/12/04 06:04:14;;;;;;;27.40;9.40;;;-0.80;99.90;;;;;;5000292;28;20062;-63
2023/12/04 06:06:40;;;;;;;26.35;9.10;;;-0.80;99.90;;;;;;4982991;28;20061;-64
2023/12/04 06:09:06;;;;;;;26.38;9.63;;;-0.80;99.90;;;;;;4983134;28;20018;-63
2023/12/04 06:11:31;;;;;;;22.35;9.23;;;-0.80;99.90;;;;;;5000258;28;20038;-63
2023/12/04 06:13:57;;;;;;;21.80;8.57;;;-0.70;99.90;;;;;;4982966;28;20030;-64
2023/12/04 06:16:22;;;;;;;21.83;8.27;;;-0.70;99.90;;;;;;4983073;28;20030;-64
2023/12/04 06:18:48;;;;;;;23.27;9.40;;;-0.50;99.90;;;;;;4982907;28;20049;-64
2023/12/04 06:21:14;;;;;;;26.10;9.35;;;-0.50;99.90;;;;;;5000068;28;20022;-63
2023/12/04 06:23:40;;;;;;;24.20;9.65;;;-0.60;99.90;;;;;;4999950;28;20037;-63
2023/12/04 06:26:06;;;;;;;23.90;8.57;;;-0.60;99.90;;;;;;4982489;28;20125;-63
2023/12/04 06:28:32;;;;;;;26.27;10.48;;;-0.60;99.90;;;;;;4982668;28;20061;-63
2023/12/04 06:30:58;;;;;;;18.73;8.10;;;-0.60;99.90;;;;;;4999688;28;20025;-64
2023/12/04 06:33:24;;;;;;;19.42;8.57;;;-0.60;99.90;;;;;;4983010;28;20054;-64
2023/12/04 06:35:50;;;;;;;23.80;8.50;;;-0.50;99.90;;;;;;4982463;28;20038;-63
2023/12/04 06:38:18;;;;;;;21.27;9.27;;;-0.60;99.90;;;;;;4982828;28;20097;-63
2023/12/04 06:40:44;;;;;;;23.30;8.48;;;-0.70;99.90;;;;;;4999739;28;20030;-64
2023/12/04 06:43:10;;;;;;;22.00;8.10;;;-0.70;99.90;;;;;;4985552;28;20029;-64
2023/12/04 06:45:36;;;;;;;20.75;9.38;;;-0.60;99.90;;;;;;4999525;28;20105;-67
2023/12/04 06:48:02;;;;;;;19.73;8.32;;;-0.60;99.90;;;;;;4982474;28;20029;-67
2023/12/04 06:50:27;;;;;;;18.00;7.65;;;-0.70;99.90;;;;;;4982241;28;20030;-67
2023/12/04 06:52:53;;;;;;;18.55;8.38;;;-0.50;99.90;;;;;;4982275;28;20018;-67
2023/12/04 06:55:19;;;;;;;19.35;8.07;;;-0.40;99.90;;;;;;4999317;28;20022;-67
2023/12/04 06:57:44;;;;;;;19.23;9.88;;;-0.50;99.90;;;;;;4982230;28;20026;-67
2023/12/04 07:00:14;;;;;;;18.55;7.68;;;-0.70;99.90;;;;;;4999360;28;20030;-67
2023/12/04 07:02:40;;;;;;;20.15;8.40;;;-0.70;99.90;;;;;;4982056;28;20054;-67
2023/12/04 07:05:06;;;;;;;21.60;9.98;;;-0.70;99.90;;;;;;4999090;28;20042;-67
2023/12/04 07:07:32;;;;;;;24.75;9.27;;;-0.70;99.90;;;;;;4999471;28;20074;-67
2023/12/04 07:09:57;;;;;;;19.48;8.18;;;-0.80;99.90;;;;;;4999131;28;20101;-67
2023/12/04 07:12:22;;;;;;;22.30;8.55;;;-0.70;99.90;;;;;;4999022;28;20102;-67
2023/12/04 07:14:48;;;;;;;23.20;8.45;;;-0.70;99.90;;;;;;4982563;28;20030;-67
2023/12/04 07:17:13;;;;;;;19.75;8.70;;;-0.70;99.90;;;;;;4998991;28;20030;-67
2023/12/04 07:19:41;;;;;;;22.73;9.63;;;-0.70;99.90;;;;;;4981810;28;20031;-67
2023/12/04 07:22:06;;;;;;;24.15;8.25;;;-0.60;99.90;;;;;;4998746;28;20023;-67
2023/12/04 07:24:32;;;;;;;17.50;7.80;;;-0.60;99.90;;;;;;4982377;28;20038;-67
2023/12/04 07:26:58;;;;;;;23.75;8.85;;;-0.50;99.90;;;;;;4981636;28;20037;-67
2023/12/04 07:29:24;;;;;;;25.67;8.43;;;-0.50;99.90;;;;;;4981642;28;20019;-67
2023/12/04 07:31:49;;;;;;;24.42;8.98;;;-0.50;99.90;;;;;;4981639;28;20026;-67
2023/12/04 07:34:15;;;;;;;21.80;7.47;;;-0.70;99.90;;;;;;4981879;28;20022;-67
2023/12/04 07:36:41;;;;;;;23.33;8.20;;;-0.60;99.90;;;;;;4981641;28;20161;-67
2023/12/04 07:39:06;;;;;;;20.90;7.40;;;-0.60;99.90;;;;;;4981594;28;20121;-67
2023/12/04 07:41:32;;;;;;;21.58;8.07;;;-0.50;99.90;;;;;;4980728;28;20034;-67
2023/12/04 07:43:58;;;;;;;21.55;9.07;;;-0.40;99.90;;;;;;4981759;28;20176;-67
2023/12/04 07:46:23;;;;;;;18.95;7.57;;;-0.50;99.90;;;;;;4981547;28;20025;-67
2023/12/04 07:48:49;;;;;;;17.25;7.72;;;-0.70;99.90;;;;;;4981137;28;20069;-67
2023/12/04 07:51:15;;;;;;;17.10;7.28;;;-0.60;99.90;;;;;;4981226;28;20026;-64
2023/12/04 07:53:40;;;;;;;20.88;7.85;;;-0.60;99.90;;;;;;4981978;28;20026;-63
2023/12/04 07:56:06;;;;;;;23.58;8.60;;;-0.70;99.90;;;;;;4981380;28;20054;-64
2023/12/04 07:58:32;;;;;;;21.00;7.93;;;-0.60;99.90;;;;;;4981269;28;20022;-63
2023/12/04 08:00:58;;;;;;;18.98;7.88;;;-0.80;99.90;;;;;;4980977;28;20030;-63
2023/12/04 08:03:23;;;;;;;20.25;8.15;;;-0.80;99.90;;;;;;4981149;28;20026;-63
2023/12/04 08:05:50;;;;;;;19.50;8.38;;;-0.90;99.90;;;;;;4980916;28;20033;-63
2023/12/04 08:08:16;;;;;;;21.48;8.75;;;-0.90;99.90;;;;;;4981038;28;20053;-63
2023/12/04 08:10:41;;;;;;;21.77;8.43;;;-0.70;99.90;;;;;;4981035;28;20058;-63
2023/12/04 08:13:07;;;;;;;19.60;8.43;;;-0.50;99.90;;;;;;4998008;28;20101;-63
2023/12/04 08:15:32;;;;;;;24.17;8.68;;;-0.30;99.90;;;;;;4980676;28;20041;-63
2023/12/04 08:17:58;;;;;;;20.02;8.80;;;-0.30;99.90;;;;;;4980804;28;20023;-63
2023/12/04 08:20:24;;;;;;;23.75;8.73;;;-0.30;99.90;;;;;;4981608;28;20112;-63
2023/12/04 08:22:49;;;;;;;17.33;7.47;;;-0.30;99.90;;;;;;4980740;28;20054;-63
2023/12/04 08:25:15;;;;;;;19.35;8.05;;;-0.40;99.90;;;;;;4980555;28;20026;-63
2023/12/04 08:27:40;;;;;;;21.20;8.38;;;-0.30;99.90;;;;;;4997643;28;20034;-63
2023/12/04 08:30:07;;;;;;;22.80;8.55;;;-0.30;99.90;;;;;;4980675;28;20030;-63
2023/12/04 08:32:32;;;;;;;22.05;8.68;;;-0.40;99.90;;;;;;4980753;28;20042;-63
2023/12/04 08:34:58;;;;;;;23.67;7.78;;;-0.60;99.90;;;;;;4997593;28;20023;-63
2023/12/04 08:37:23;;;;;;;21.35;8.68;;;-0.70;99.90;;;;;;4998041;28;20037;-63
2023/12/04 08:39:49;;;;;;;17.30;7.35;;;-0.60;99.90;;;;;;4980804;28;20049;-63
2023/12/04 08:42:14;;;;;;;18.20;7.40;;;-0.70;99.90;;;;;;4997744;28;20057;-63
2023/12/04 08:44:40;;;;;;;22.27;8.13;;;-0.50;99.90;;;;;;4980698;28;20033;-63
2023/12/04 08:47:06;;;;;;;19.00;6.95;;;-0.40;99.90;;;;;;4980492;28;20105;-63
2023/12/04 08:49:32;;;;;;;23.85;8.10;;;-0.30;99.90;;;;;;4980284;28;20023;-63
2023/12/04 08:51:58;;;;;;;15.05;7.15;;;-0.10;99.90;;;;;;4997027;28;20062;-64
2023/12/04 08:54:24;;;;;;;18.73;7.55;;;0.00;99.90;;;;;;4996955;28;20033;-64
2023/12/04 08:56:50;;;;;;;17.45;7.45;;;-0.10;99.90;;;;;;4980217;28;20026;-63
2023/12/04 08:59:16;;;;;;;18.40;8.23;;;0.00;99.90;;;;;;4997166;28;20110;-63
2023/12/04 09:01:42;;;;;;;17.73;7.80;;;-0.10;99.90;;;;;;4980391;28;20038;-63
2023/12/04 09:04:09;;;;;;;21.92;7.95;;;0.10;99.90;;;;;;4997176;28;20023;-64
2023/12/04 09:06:34;;;;;;;18.00;6.55;;;0.10;99.90;;;;;;4997252;28;20026;-63
2023/12/04 09:09:00;;;;;;;19.05;8.48;;;0.20;99.90;;;;;;4980464;28;20023;-64
2023/12/04 09:11:25;;;;;;;16.88;7.50;;;0.10;99.90;;;;;;4980141;28;20026;-63
2023/12/04 09:13:51;;;;;;;16.40;7.15;;;-0.20;99.90;;;;;;4980408;28;20029;-64
2023/12/04 09:16:17;;;;;;;16.23;6.85;;;-0.20;99.90;;;;;;4997366;28;20026;-63
2023/12/04 09:18:42;;;;;;;18.02;7.20;;;0.00;99.90;;;;;;4980505;28;20041;-63
2023/12/04 09:21:08;;;;;;;16.67;6.63;;;0.20;99.90;;;;;;4997684;28;20030;-63
2023/12/04 09:23:35;;;;;;;15.43;6.35;;;0.20;99.90;;;;;;4980144;28;20027;-63
2023/12/04 09:26:00;;;;;;;18.75;7.05;;;0.30;99.90;;;;;;4980006;28;20053;-63
2023/12/04 09:28:26;;;;;;;13.80;6.55;;;0.30;99.90;;;;;;4980015;28;20100;-63
2023/12/04 09:30:51;;;;;;;15.57;7.15;;;0.20;99.90;;;;;;4980161;28;20037;-63
2023/12/04 09:33:17;;;;;;;14.50;6.50;;;0.00;99.90;;;;;;4979886;28;20014;-63
2023/12/04 09:35:43;;;;;;;18.55;7.22;;;0.00;99.90;;;;;;4979849;28;20038;-63
2023/12/04 09:38:09;;;;;;;19.45;6.25;;;0.10;99.90;;;;;;4979902;28;20037;-63
2023/12/04 09:40:35;;;;;;;18.38;6.53;;;0.10;99.90;;;;;;4980019;28;20026;-63
2023/12/04 09:43:01;;;;;;;14.88;6.55;;;0.10;99.90;;;;;;4979933;28;20039;-64
2023/12/04 09:45:28;;;;;;;17.08;6.97;;;0.10;99.90;;;;;;4996671;28;20026;-63
2023/12/04 09:47:54;;;;;;;16.85;7.15;;;0.00;99.90;;;;;;4996938;28;20041;-63
2023/12/04 09:50:22;;;;;;;16.88;6.95;;;0.00;99.90;;;;;;4979727;28;20025;-63
2023/12/04 09:52:52;;;;;;;14.48;5.85;;;0.10;99.90;;;;;;4979596;28;20023;-64
2023/12/04 09:55:18;;;;;;;16.67;6.10;;;0.40;99.90;;;;;;4979718;28;20026;-64
2023/12/04 09:57:48;;;;;;;15.63;6.85;;;0.80;99.90;;;;;;4979802;28;20109;-64
2023/12/04 10:00:15;;;;;;;15.30;6.18;;;0.60;99.90;;;;;;4979796;28;20114;-63
2023/12/04 10:02:41;;;;;;;18.52;6.05;;;0.40;99.90;;;;;;4979735;28;20027;-64
2023/12/04 10:05:09;;;;;;;16.45;6.97;;;0.20;99.90;;;;;;4982125;28;20023;-64
2023/12/04 10:07:38;;;;;;;30.25;6.75;;;0.10;99.90;;;;;;5000848;28;20053;-64
2023/12/04 10:10:05;;;;;;;12.50;6.20;;;0.10;99.90;;;;;;4983347;28;20033;-63
2023/12/04 10:12:33;;;;;;;10.68;5.97;;;0.10;99.90;;;;;;5000527;28;20019;-64
2023/12/04 10:15:06;;;;;;;12.10;6.32;;;0.10;99.90;;;;;;4982888;28;20030;-63
2023/12/04 10:17:40;;;;;;;14.35;6.57;;;0.10;99.90;;;;;;5000011;28;20026;-64
2023/12/04 10:20:17;;;;;;;16.40;6.57;;;0.10;99.90;;;;;;5000126;28;20038;-63
2023/12/04 10:22:59;;;;;;;15.05;5.70;;;0.10;99.90;;;;;;5000194;28;20093;-64
2023/12/04 10:25:28;;;;;;;14.32;6.03;;;0.20;99.90;;;;;;4999822;28;20026;-63
2023/12/04 10:27:54;;;;;;;14.10;5.85;;;0.30;99.90;;;;;;4999863;28;20102;-64
2023/12/04 10:30:28;;;;;;;16.02;6.13;;;0.20;99.90;;;;;;4983165;28;20049;-63
2023/12/04 10:33:00;;;;;;;17.30;6.32;;;0.20;99.90;;;;;;4999738;28;20029;-64
2023/12/04 10:35:28;;;;;;;14.48;6.07;;;0.20;99.90;;;;;;4999627;28;20109;-63
2023/12/04 10:37:55;;;;;;;15.30;5.82;;;0.20;99.90;;;;;;4982740;28;20018;-64
2023/12/04 10:40:28;;;;;;;13.13;5.93;;;0.20;99.90;;;;;;4982434;28;20117;-64
2023/12/04 10:43:16;;;;;;;16.90;6.95;;;0.30;99.90;;;;;;4983195;28;20026;-64
2023/12/04 10:45:43;;;;;;;16.23;6.43;;;0.20;99.90;;;;;;4983002;28;20026;-64
2023/12/04 10:48:10;;;;;;;15.77;7.40;;;0.30;99.90;;;;;;4983143;28;20046;-64
2023/12/04 10:50:41;;;;;;;16.67;6.35;;;0.20;99.90;;;;;;4983078;28;20022;-64
2023/12/04 10:53:09;;;;;;;15.30;6.45;;;0.30;99.90;;;;;;4982558;28;20029;-64
2023/12/04 10:55:35;;;;;;;13.02;6.28;;;0.50;99.90;;;;;;4999420;28;20027;-64
2023/12/04 10:58:05;;;;;;;17.42;6.78;;;0.50;99.90;;;;;;4983137;28;20037;-64
2023/12/04 11:00:38;;;;;;;15.02;6.78;;;0.60;99.90;;;;;;4999491;28;20026;-64
2023/12/04 11:03:19;;;;;;;14.55;5.38;;;0.70;99.90;;;;;;4982552;28;20026;-64
2023/12/04 11:05:47;;;;;;;18.08;6.75;;;0.90;99.90;;;;;;4982402;28;20026;-64
2023/12/04 11:08:17;;;;;;;16.60;6.53;;;1.00;99.90;;;;;;4981999;28;20030;-64
2023/12/04 11:10:59;;;;;;;17.48;6.50;;;1.00;99.90;;;;;;4982004;28;20030;-64
2023/12/04 11:13:30;;;;;;;14.20;6.65;;;1.10;99.90;;;;;;4982058;28;20026;-64
2023/12/04 11:16:25;;;;;;;15.98;6.30;;;1.20;99.90;;;;;;4980980;28;20030;-64
2023/12/04 11:19:02;;;;;;;16.15;6.47;;;1.10;99.90;;;;;;4999175;28;20081;-63
2023/12/04 11:21:31;;;;;;;17.48;6.35;;;0.70;99.90;;;;;;4981848;28;20037;-64
2023/12/04 11:23:58;;;;;;;16.08;6.30;;;0.50;99.90;;;;;;4999060;28;20022;-64
2023/12/04 11:26:25;;;;;;;18.15;7.32;;;0.50;99.90;;;;;;4998668;28;20150;-64
2023/12/04 11:28:52;;;;;;;19.35;7.18;;;0.50;99.90;;;;;;4999002;28;20026;-64
2023/12/04 11:31:17;;;;;;;15.85;6.32;;;0.50;99.90;;;;;;4998695;28;20030;-64
2023/12/04 11:33:44;;;;;;;14.40;6.28;;;0.50;99.90;;;;;;4982019;28;20026;-63
2023/12/04 11:36:12;;;;;;;15.80;6.75;;;0.40;99.90;;;;;;4998618;28;20034;-64
2023/12/04 11:38:40;;;;;;;14.43;6.57;;;0.50;99.90;;;;;;4981402;28;20030;-64
2023/12/04 11:41:35;;;;;;;12.70;6.32;;;0.60;99.90;;;;;;4981770;28;20027;-64
2023/12/04 11:44:00;;;;;;;13.18;6.75;;;0.70;99.90;;;;;;4939075;29;20067;-64
2023/12/04 11:46:30;;;;;;;16.05;7.35;;;0.50;99.90;;;;;;4938914;29;20083;-64
2023/12/04 11:49:17;;;;;;;18.73;7.03;;;0.50;99.90;;;;;;4922969;29;20071;-65
2023/12/04 11:51:44;;;;;;;15.30;6.50;;;0.50;99.90;;;;;;4938641;29;20134;-64
2023/12/04 11:54:10;;;;;;;110.55;18.42;;;0.50;99.90;;;;;;4938928;29;20036;-63
2023/12/04 11:56:36;;;;;;;33.30;8.55;;;0.50;99.90;;;;;;4922681;29;20024;-64
2023/12/04 11:59:06;;;;;;;20.42;7.75;;;0.40;99.90;;;;;;4922807;29;20038;-64
2023/12/04 12:01:37;;;;;;;13.60;5.55;;;0.50;99.90;;;;;;4938935;29;20043;-64
2023/12/04 12:04:06;;;;;;;14.50;6.15;;;0.60;99.90;;;;;;4938639;29;20140;-64
2023/12/04 12:06:32;;;;;;;15.07;6.15;;;0.90;99.90;;;;;;4938606;29;20039;-64
2023/12/04 12:08:58;;;;;;;13.95;5.80;;;1.20;99.90;;;;;;4922589;29;20023;-64
2023/12/04 12:11:24;;;;;;;15.60;6.45;;;1.40;99.90;;;;;;4922560;29;20063;-64
2023/12/04 12:13:50;;;;;;;17.52;6.47;;;1.20;99.90;;;;;;4922587;29;20042;-64
2023/12/04 12:16:18;;;;;;;13.15;6.47;;;1.20;99.90;;;;;;4922425;29;20118;-64
2023/12/04 12:18:43;;;;;;;17.25;7.35;;;1.40;99.90;;;;;;4922614;29;20035;-64
2023/12/04 12:21:09;;;;;;;14.15;6.78;;;1.50;99.90;;;;;;4970784;28;20057;-64
2023/12/04 12:23:35;;;;;;;16.33;6.72;;;1.10;99.90;;;;;;4981612;28;20042;-64
2023/12/04 12:26:01;;;;;;;20.75;6.65;;;0.90;99.90;;;;;;4980789;28;20030;-64
2023/12/04 12:28:26;;;;;;;17.58;6.68;;;0.70;99.90;;;;;;4980506;28;20054;-64
2023/12/04 12:30:53;;;;;;;15.07;6.65;;;0.70;99.90;;;;;;4980929;28;20026;-64
2023/12/04 12:33:20;;;;;;;16.35;6.55;;;0.60;99.90;;;;;;4980510;28;20023;-64
2023/12/04 12:35:47;;;;;;;15.38;6.68;;;0.50;99.90;;;;;;4980261;28;20034;-64
2023/12/04 12:38:12;;;;;;;11.90;6.22;;;0.40;99.90;;;;;;4981196;28;20033;-64